sensor_id;sensor_type;location;lat;lon;timestamp;P1;durP1;ratioP1;P2;durP2;ratioP2
31818;SDS011;18384;48.860;9.188;2023-06-01T00:02:25;10.88;;;3.33;;
31818;SDS011;18384;48.860;9.188;2023-06-01T00:04:51;10.10;;;3.03;;
31818;SDS011;18384;48.860;9.188;2023-06-01T00:07:17;12.40;;;2.95;;
31818;SDS011;18384;48.860;9.188;2023-06-01T00:09:43;22.87;;;3.78;;
31818;SDS011;18384;48.860;9.188;2023-06-01T00:12:09;6.80;;;2.87;;
31818;SDS011;18384;48.860;9.188;2023-06-01T00:14:35;9.10;;;2.78;;
31818;SDS011;18384;48.860;9.188;2023-06-01T00:17:01;10.40;;;3.30;;
31818;SDS011;18384;48.860;9.188;2023-06-01T00:19:28;7.97;;;2.83;;
31818;SDS011;18384;48.860;9.188;2023-06-01T00:21:54;8.90;;;3.08;;
31818;SDS011;18384;48.860;9.188;2023-06-01T00:24:22;9.10;;;2.67;;
31818;SDS011;18384;48.860;9.188;2023-06-01T00:26:48;12.50;;;3.28;;
31818;SDS011;18384;48.860;9.188;2023-06-01T00:29:15;7.45;;;3.15;;
31818;SDS011;18384;48.860;9.188;2023-06-01T00:31:41;9.63;;;3.00;;
31818;SDS011;18384;48.860;9.188;2023-06-01T00:34:07;7.82;;;3.30;;
31818;SDS011;18384;48.860;9.188;2023-06-01T00:36:34;13.23;;;3.62;;
31818;SDS011;18384;48.860;9.188;2023-06-01T00:39:00;8.15;;;2.70;;
31818;SDS011;18384;48.860;9.188;2023-06-01T00:41:30;6.55;;;3.00;;
31818;SDS011;18384;48.860;9.188;2023-06-01T00:43:57;5.22;;;2.70;;
31818;SDS011;18384;48.860;9.188;2023-06-01T00:48:50;9.98;;;3.35;;
31818;SDS011;18384;48.860;9.188;2023-06-01T00:51:16;6.82;;;2.90;;
31818;SDS011;18384;48.860;9.188;2023-06-01T00:53:43;8.05;;;3.45;;
31818;SDS011;18384;48.860;9.188;2023-06-01T00:56:10;13.23;;;3.17;;
31818;SDS011;18384;48.860;9.188;2023-06-01T00:58:39;15.18;;;3.12;;
31818;SDS011;18384;48.860;9.188;2023-06-01T01:01:06;10.48;;;2.90;;
31818;SDS011;18384;48.860;9.188;2023-06-01T01:03:47;10.90;;;3.15;;
31818;SDS011;18384;48.860;9.188;2023-06-01T01:06:30;10.57;;;2.42;;
31818;SDS011;18384;48.860;9.188;2023-06-01T01:14:08;9.85;;;2.87;;
31818;SDS011;18384;48.860;9.188;2023-06-01T01:17:22;9.82;;;3.05;;
31818;SDS011;18384;48.860;9.188;2023-06-01T01:20:12;8.13;;;2.53;;
31818;SDS011;18384;48.860;9.188;2023-06-01T01:27:44;11.05;;;2.65;;
31818;SDS011;18384;48.860;9.188;2023-06-01T01:31:43;15.55;;;3.20;;
31818;SDS011;18384;48.860;9.188;2023-06-01T01:34:13;5.93;;;2.55;;
31818;SDS011;18384;48.860;9.188;2023-06-01T01:36:39;7.80;;;2.65;;
31818;SDS011;18384;48.860;9.188;2023-06-01T01:39:06;6.47;;;2.55;;
31818;SDS011;18384;48.860;9.188;2023-06-01T01:41:32;11.40;;;3.10;;
31818;SDS011;18384;48.860;9.188;2023-06-01T01:43:59;10.80;;;3.28;;
31818;SDS011;18384;48.860;9.188;2023-06-01T01:49:07;6.62;;;2.67;;
31818;SDS011;18384;48.860;9.188;2023-06-01T01:51:45;7.15;;;2.30;;
31818;SDS011;18384;48.860;9.188;2023-06-01T01:54:19;6.30;;;2.37;;
31818;SDS011;18384;48.860;9.188;2023-06-01T01:56:46;14.85;;;2.67;;
31818;SDS011;18384;48.860;9.188;2023-06-01T01:59:14;8.52;;;2.83;;
31818;SDS011;18384;48.860;9.188;2023-06-01T02:01:41;14.75;;;3.25;;
31818;SDS011;18384;48.860;9.188;2023-06-01T02:04:09;14.48;;;2.85;;
31818;SDS011;18384;48.860;9.188;2023-06-01T02:06:36;8.93;;;2.30;;
31818;SDS011;18384;48.860;9.188;2023-06-01T02:09:05;15.23;;;2.95;;
31818;SDS011;18384;48.860;9.188;2023-06-01T02:11:35;7.57;;;2.78;;
31818;SDS011;18384;48.860;9.188;2023-06-01T02:14:01;8.73;;;3.17;;
31818;SDS011;18384;48.860;9.188;2023-06-01T02:18:54;11.07;;;2.78;;
31818;SDS011;18384;48.860;9.188;2023-06-01T02:21:23;14.82;;;2.90;;
31818;SDS011;18384;48.860;9.188;2023-06-01T02:23:49;6.12;;;2.78;;
31818;SDS011;18384;48.860;9.188;2023-06-01T02:26:16;11.23;;;3.55;;
31818;SDS011;18384;48.860;9.188;2023-06-01T02:28:42;6.22;;;2.78;;
31818;SDS011;18384;48.860;9.188;2023-06-01T02:31:08;4.47;;;2.40;;
31818;SDS011;18384;48.860;9.188;2023-06-01T02:33:35;8.35;;;3.40;;
31818;SDS011;18384;48.860;9.188;2023-06-01T02:36:03;11.35;;;3.10;;
31818;SDS011;18384;48.860;9.188;2023-06-01T02:38:30;12.90;;;2.50;;
31818;SDS011;18384;48.860;9.188;2023-06-01T02:40:56;7.78;;;2.95;;
31818;SDS011;18384;48.860;9.188;2023-06-01T02:43:22;14.10;;;3.25;;
31818;SDS011;18384;48.860;9.188;2023-06-01T02:45:48;8.95;;;2.60;;
31818;SDS011;18384;48.860;9.188;2023-06-01T02:48:14;8.80;;;3.03;;
31818;SDS011;18384;48.860;9.188;2023-06-01T02:50:40;7.62;;;2.45;;
31818;SDS011;18384;48.860;9.188;2023-06-01T02:53:06;10.45;;;2.97;;
31818;SDS011;18384;48.860;9.188;2023-06-01T02:55:32;5.55;;;3.08;;
31818;SDS011;18384;48.860;9.188;2023-06-01T02:57:59;6.87;;;2.72;;
31818;SDS011;18384;48.860;9.188;2023-06-01T03:00:25;8.75;;;2.85;;
31818;SDS011;18384;48.860;9.188;2023-06-01T03:02:52;9.93;;;2.65;;
31818;SDS011;18384;48.860;9.188;2023-06-01T03:05:18;9.57;;;2.80;;
31818;SDS011;18384;48.860;9.188;2023-06-01T03:07:46;6.32;;;3.03;;
31818;SDS011;18384;48.860;9.188;2023-06-01T03:10:13;6.90;;;2.78;;
31818;SDS011;18384;48.860;9.188;2023-06-01T03:12:39;9.48;;;2.67;;
31818;SDS011;18384;48.860;9.188;2023-06-01T03:15:05;9.02;;;3.10;;
31818;SDS011;18384;48.860;9.188;2023-06-01T03:17:32;12.73;;;2.87;;
31818;SDS011;18384;48.860;9.188;2023-06-01T03:19:58;11.90;;;3.25;;
31818;SDS011;18384;48.860;9.188;2023-06-01T03:22:25;10.05;;;3.03;;
31818;SDS011;18384;48.860;9.188;2023-06-01T03:24:51;11.98;;;3.08;;
31818;SDS011;18384;48.860;9.188;2023-06-01T03:27:19;6.72;;;2.70;;
31818;SDS011;18384;48.860;9.188;2023-06-01T03:29:46;10.00;;;2.95;;
31818;SDS011;18384;48.860;9.188;2023-06-01T03:32:13;15.30;;;2.87;;
31818;SDS011;18384;48.860;9.188;2023-06-01T03:34:39;6.68;;;2.58;;
31818;SDS011;18384;48.860;9.188;2023-06-01T03:37:06;6.62;;;2.58;;
31818;SDS011;18384;48.860;9.188;2023-06-01T03:39:33;10.73;;;3.12;;
31818;SDS011;18384;48.860;9.188;2023-06-01T03:42:00;13.27;;;3.10;;
31818;SDS011;18384;48.860;9.188;2023-06-01T03:44:27;11.30;;;3.05;;
31818;SDS011;18384;48.860;9.188;2023-06-01T03:46:53;5.37;;;2.45;;
31818;SDS011;18384;48.860;9.188;2023-06-01T03:49:19;10.00;;;2.80;;
31818;SDS011;18384;48.860;9.188;2023-06-01T03:51:45;7.68;;;2.97;;
31818;SDS011;18384;48.860;9.188;2023-06-01T03:54:12;11.38;;;3.55;;
31818;SDS011;18384;48.860;9.188;2023-06-01T03:56:38;7.65;;;2.62;;
31818;SDS011;18384;48.860;9.188;2023-06-01T03:59:04;8.48;;;2.90;;
31818;SDS011;18384;48.860;9.188;2023-06-01T04:01:35;7.53;;;2.60;;
31818;SDS011;18384;48.860;9.188;2023-06-01T04:04:05;12.82;;;3.30;;
31818;SDS011;18384;48.860;9.188;2023-06-01T04:06:33;7.62;;;2.83;;
31818;SDS011;18384;48.860;9.188;2023-06-01T04:09:01;11.43;;;3.70;;
31818;SDS011;18384;48.860;9.188;2023-06-01T04:11:32;9.00;;;2.90;;
31818;SDS011;18384;48.860;9.188;2023-06-01T04:14:01;6.70;;;3.00;;
31818;SDS011;18384;48.860;9.188;2023-06-01T04:16:27;8.70;;;2.92;;
31818;SDS011;18384;48.860;9.188;2023-06-01T04:18:53;9.10;;;3.12;;
31818;SDS011;18384;48.860;9.188;2023-06-01T04:21:20;8.45;;;2.55;;
31818;SDS011;18384;48.860;9.188;2023-06-01T04:23:48;14.63;;;2.80;;
31818;SDS011;18384;48.860;9.188;2023-06-01T04:26:15;6.00;;;2.70;;
31818;SDS011;18384;48.860;9.188;2023-06-01T04:28:43;8.70;;;3.00;;
31818;SDS011;18384;48.860;9.188;2023-06-01T04:31:11;7.85;;;2.83;;
31818;SDS011;18384;48.860;9.188;2023-06-01T04:33:42;7.50;;;2.60;;
31818;SDS011;18384;48.860;9.188;2023-06-01T04:36:11;14.02;;;3.40;;
31818;SDS011;18384;48.860;9.188;2023-06-01T04:38:41;7.30;;;3.15;;
31818;SDS011;18384;48.860;9.188;2023-06-01T04:41:07;12.40;;;3.62;;
31818;SDS011;18384;48.860;9.188;2023-06-01T04:43:35;7.35;;;2.65;;
31818;SDS011;18384;48.860;9.188;2023-06-01T04:46:04;11.68;;;3.25;;
31818;SDS011;18384;48.860;9.188;2023-06-01T04:50:58;12.20;;;2.67;;
31818;SDS011;18384;48.860;9.188;2023-06-01T04:53:25;10.00;;;2.85;;
31818;SDS011;18384;48.860;9.188;2023-06-01T04:55:51;9.18;;;3.50;;
31818;SDS011;18384;48.860;9.188;2023-06-01T04:58:19;8.60;;;3.05;;
31818;SDS011;18384;48.860;9.188;2023-06-01T05:00:45;14.52;;;3.42;;
31818;SDS011;18384;48.860;9.188;2023-06-01T05:03:11;10.35;;;4.00;;
31818;SDS011;18384;48.860;9.188;2023-06-01T05:05:37;9.88;;;3.10;;
31818;SDS011;18384;48.860;9.188;2023-06-01T05:08:04;18.08;;;3.12;;
31818;SDS011;18384;48.860;9.188;2023-06-01T05:10:30;10.93;;;3.17;;
31818;SDS011;18384;48.860;9.188;2023-06-01T05:12:56;13.43;;;2.85;;
31818;SDS011;18384;48.860;9.188;2023-06-01T05:15:22;6.07;;;2.60;;
31818;SDS011;18384;48.860;9.188;2023-06-01T05:17:48;12.15;;;3.08;;
31818;SDS011;18384;48.860;9.188;2023-06-01T05:20:16;7.10;;;2.78;;
31818;SDS011;18384;48.860;9.188;2023-06-01T05:22:42;11.95;;;2.65;;
31818;SDS011;18384;48.860;9.188;2023-06-01T05:25:08;9.18;;;2.50;;
31818;SDS011;18384;48.860;9.188;2023-06-01T05:27:35;10.18;;;2.97;;
31818;SDS011;18384;48.860;9.188;2023-06-01T05:30:02;9.32;;;2.87;;
31818;SDS011;18384;48.860;9.188;2023-06-01T05:32:28;9.00;;;2.72;;
31818;SDS011;18384;48.860;9.188;2023-06-01T05:34:55;6.32;;;2.85;;
31818;SDS011;18384;48.860;9.188;2023-06-01T05:37:21;15.20;;;3.03;;
31818;SDS011;18384;48.860;9.188;2023-06-01T05:39:47;9.75;;;3.08;;
31818;SDS011;18384;48.860;9.188;2023-06-01T05:42:13;11.88;;;3.22;;
31818;SDS011;18384;48.860;9.188;2023-06-01T05:44:39;6.97;;;3.55;;
31818;SDS011;18384;48.860;9.188;2023-06-01T05:47:05;11.90;;;3.17;;
31818;SDS011;18384;48.860;9.188;2023-06-01T05:49:33;15.43;;;2.90;;
31818;SDS011;18384;48.860;9.188;2023-06-01T05:52:01;19.60;;;2.80;;
31818;SDS011;18384;48.860;9.188;2023-06-01T05:54:29;5.20;;;2.70;;
31818;SDS011;18384;48.860;9.188;2023-06-01T05:56:55;10.07;;;2.70;;
31818;SDS011;18384;48.860;9.188;2023-06-01T05:59:21;14.73;;;3.12;;
31818;SDS011;18384;48.860;9.188;2023-06-01T06:01:47;9.48;;;2.70;;
31818;SDS011;18384;48.860;9.188;2023-06-01T06:04:14;13.57;;;3.00;;
31818;SDS011;18384;48.860;9.188;2023-06-01T06:06:40;11.00;;;2.70;;
31818;SDS011;18384;48.860;9.188;2023-06-01T06:09:06;11.20;;;3.72;;
31818;SDS011;18384;48.860;9.188;2023-06-01T06:13:58;7.47;;;2.55;;
31818;SDS011;18384;48.860;9.188;2023-06-01T06:16:24;17.55;;;3.00;;
31818;SDS011;18384;48.860;9.188;2023-06-01T06:18:50;9.73;;;3.58;;
31818;SDS011;18384;48.860;9.188;2023-06-01T06:21:16;7.37;;;3.05;;
31818;SDS011;18384;48.860;9.188;2023-06-01T06:23:43;11.20;;;3.05;;
31818;SDS011;18384;48.860;9.188;2023-06-01T06:26:10;7.28;;;2.60;;
31818;SDS011;18384;48.860;9.188;2023-06-01T06:28:36;14.13;;;2.75;;
31818;SDS011;18384;48.860;9.188;2023-06-01T06:31:02;11.23;;;2.70;;
31818;SDS011;18384;48.860;9.188;2023-06-01T06:33:28;6.10;;;2.47;;
31818;SDS011;18384;48.860;9.188;2023-06-01T06:35:54;12.52;;;2.62;;
31818;SDS011;18384;48.860;9.188;2023-06-01T06:38:21;18.15;;;2.65;;
31818;SDS011;18384;48.860;9.188;2023-06-01T06:40:48;8.85;;;2.62;;
31818;SDS011;18384;48.860;9.188;2023-06-01T06:43:15;8.10;;;2.80;;
31818;SDS011;18384;48.860;9.188;2023-06-01T06:45:41;10.18;;;2.40;;
31818;SDS011;18384;48.860;9.188;2023-06-01T06:48:08;9.32;;;2.08;;
31818;SDS011;18384;48.860;9.188;2023-06-01T06:50:34;7.72;;;2.90;;
31818;SDS011;18384;48.860;9.188;2023-06-01T06:53:02;7.85;;;3.53;;
31818;SDS011;18384;48.860;9.188;2023-06-01T06:55:29;9.73;;;2.35;;
31818;SDS011;18384;48.860;9.188;2023-06-01T06:57:56;9.10;;;2.55;;
31818;SDS011;18384;48.860;9.188;2023-06-01T07:00:22;13.13;;;3.17;;
31818;SDS011;18384;48.860;9.188;2023-06-01T07:02:48;9.38;;;2.72;;
31818;SDS011;18384;48.860;9.188;2023-06-01T07:07:40;5.93;;;2.30;;
31818;SDS011;18384;48.860;9.188;2023-06-01T07:10:07;7.18;;;2.85;;
31818;SDS011;18384;48.860;9.188;2023-06-01T07:14:59;9.10;;;2.75;;
31818;SDS011;18384;48.860;9.188;2023-06-01T07:17:27;9.32;;;2.40;;
31818;SDS011;18384;48.860;9.188;2023-06-01T07:19:53;6.68;;;2.87;;
31818;SDS011;18384;48.860;9.188;2023-06-01T07:22:20;7.03;;;2.50;;
31818;SDS011;18384;48.860;9.188;2023-06-01T07:24:46;13.70;;;2.85;;
31818;SDS011;18384;48.860;9.188;2023-06-01T07:27:16;6.93;;;2.67;;
31818;SDS011;18384;48.860;9.188;2023-06-01T07:29:43;5.68;;;2.60;;
31818;SDS011;18384;48.860;9.188;2023-06-01T07:32:09;8.80;;;2.47;;
31818;SDS011;18384;48.860;9.188;2023-06-01T07:34:35;6.57;;;2.40;;
31818;SDS011;18384;48.860;9.188;2023-06-01T07:37:01;6.45;;;2.70;;
31818;SDS011;18384;48.860;9.188;2023-06-01T07:39:29;10.30;;;3.15;;
31818;SDS011;18384;48.860;9.188;2023-06-01T07:44:21;11.43;;;2.95;;
31818;SDS011;18384;48.860;9.188;2023-06-01T07:46:48;8.73;;;3.08;;
31818;SDS011;18384;48.860;9.188;2023-06-01T07:49:14;9.27;;;2.90;;
31818;SDS011;18384;48.860;9.188;2023-06-01T07:54:07;7.37;;;2.50;;
31818;SDS011;18384;48.860;9.188;2023-06-01T07:59:00;11.48;;;3.42;;
31818;SDS011;18384;48.860;9.188;2023-06-01T08:03:52;10.25;;;2.80;;
31818;SDS011;18384;48.860;9.188;2023-06-01T08:06:18;7.97;;;3.10;;
31818;SDS011;18384;48.860;9.188;2023-06-01T08:08:48;6.57;;;2.90;;
31818;SDS011;18384;48.860;9.188;2023-06-01T08:11:16;7.32;;;2.50;;
31818;SDS011;18384;48.860;9.188;2023-06-01T08:16:11;8.40;;;2.60;;
31818;SDS011;18384;48.860;9.188;2023-06-01T08:18:40;12.40;;;2.65;;
31818;SDS011;18384;48.860;9.188;2023-06-01T08:23:35;7.97;;;2.78;;
31818;SDS011;18384;48.860;9.188;2023-06-01T08:28:27;10.95;;;2.80;;
31818;SDS011;18384;48.860;9.188;2023-06-01T08:30:53;12.50;;;2.83;;
31818;SDS011;18384;48.860;9.188;2023-06-01T08:35:45;9.02;;;2.70;;
31818;SDS011;18384;48.860;9.188;2023-06-01T08:38:11;7.62;;;3.25;;
31818;SDS011;18384;48.860;9.188;2023-06-01T08:43:18;11.10;;;3.47;;
31818;SDS011;18384;48.860;9.188;2023-06-01T08:45:45;7.15;;;2.90;;
31818;SDS011;18384;48.860;9.188;2023-06-01T08:48:14;10.13;;;2.55;;
31818;SDS011;18384;48.860;9.188;2023-06-01T08:50:44;9.60;;;2.92;;
31818;SDS011;18384;48.860;9.188;2023-06-01T08:53:19;8.30;;;3.22;;
31818;SDS011;18384;48.860;9.188;2023-06-01T08:55:53;12.45;;;3.67;;
31818;SDS011;18384;48.860;9.188;2023-06-01T08:58:22;7.85;;;3.08;;
31818;SDS011;18384;48.860;9.188;2023-06-01T09:00:50;12.57;;;3.90;;
31818;SDS011;18384;48.860;9.188;2023-06-01T09:03:19;10.82;;;3.47;;
31818;SDS011;18384;48.860;9.188;2023-06-01T09:05:45;8.43;;;2.90;;
31818;SDS011;18384;48.860;9.188;2023-06-01T09:10:38;9.65;;;3.50;;
31818;SDS011;18384;48.860;9.188;2023-06-01T09:13:04;15.80;;;3.58;;
31818;SDS011;18384;48.860;9.188;2023-06-01T09:18:04;6.30;;;3.22;;
31818;SDS011;18384;48.860;9.188;2023-06-01T09:20:33;7.78;;;3.35;;
31818;SDS011;18384;48.860;9.188;2023-06-01T09:23:00;10.07;;;3.53;;
31818;SDS011;18384;48.860;9.188;2023-06-01T09:25:27;8.88;;;3.72;;
31818;SDS011;18384;48.860;9.188;2023-06-01T09:27:58;13.82;;;3.17;;
31818;SDS011;18384;48.860;9.188;2023-06-01T09:30:42;15.02;;;3.90;;
31818;SDS011;18384;48.860;9.188;2023-06-01T09:33:14;9.10;;;3.58;;
31818;SDS011;18384;48.860;9.188;2023-06-01T09:35:44;6.22;;;3.12;;
31818;SDS011;18384;48.860;9.188;2023-06-01T09:38:22;9.23;;;3.40;;
31818;SDS011;18384;48.860;9.188;2023-06-01T09:41:00;17.27;;;3.35;;
31818;SDS011;18384;48.860;9.188;2023-06-01T09:43:28;9.32;;;3.67;;
31818;SDS011;18384;48.860;9.188;2023-06-01T09:46:08;8.07;;;3.30;;
31818;SDS011;18384;48.860;9.188;2023-06-01T09:48:39;11.63;;;3.75;;
31818;SDS011;18384;48.860;9.188;2023-06-01T09:51:20;5.75;;;3.00;;
31818;SDS011;18384;48.860;9.188;2023-06-01T09:53:54;10.43;;;3.10;;
31818;SDS011;18384;48.860;9.188;2023-06-01T09:58:46;16.67;;;3.90;;
31818;SDS011;18384;48.860;9.188;2023-06-01T10:01:15;9.35;;;3.20;;
31818;SDS011;18384;48.860;9.188;2023-06-01T10:03:41;13.40;;;3.55;;
31818;SDS011;18384;48.860;9.188;2023-06-01T10:06:10;6.40;;;3.50;;
31818;SDS011;18384;48.860;9.188;2023-06-01T10:08:37;12.15;;;3.45;;
31818;SDS011;18384;48.860;9.188;2023-06-01T10:11:07;7.45;;;3.28;;
31818;SDS011;18384;48.860;9.188;2023-06-01T10:13:34;10.38;;;3.42;;
31818;SDS011;18384;48.860;9.188;2023-06-01T10:16:01;7.85;;;3.12;;
31818;SDS011;18384;48.860;9.188;2023-06-01T10:18:28;9.90;;;3.72;;
31818;SDS011;18384;48.860;9.188;2023-06-01T10:20:55;10.63;;;4.12;;
31818;SDS011;18384;48.860;9.188;2023-06-01T10:23:22;8.65;;;3.60;;
31818;SDS011;18384;48.860;9.188;2023-06-01T10:30:41;7.50;;;3.55;;
31818;SDS011;18384;48.860;9.188;2023-06-01T10:47:05;8.65;;;3.33;;
31818;SDS011;18384;48.860;9.188;2023-06-01T10:51:19;11.43;;;3.75;;
31818;SDS011;18384;48.860;9.188;2023-06-01T10:53:46;11.95;;;3.70;;
31818;SDS011;18384;48.860;9.188;2023-06-01T10:59:11;9.15;;;3.42;;
31818;SDS011;18384;48.860;9.188;2023-06-01T11:04:11;8.63;;;3.17;;
31818;SDS011;18384;48.860;9.188;2023-06-01T11:06:39;12.85;;;3.60;;
31818;SDS011;18384;48.860;9.188;2023-06-01T11:09:11;8.98;;;3.03;;
31818;SDS011;18384;48.860;9.188;2023-06-01T11:18:53;7.22;;;2.80;;
31818;SDS011;18384;48.860;9.188;2023-06-01T11:21:28;17.62;;;3.33;;
31818;SDS011;18384;48.860;9.188;2023-06-01T11:23:59;9.32;;;3.28;;
31818;SDS011;18384;48.860;9.188;2023-06-01T11:26:30;9.40;;;3.35;;
31818;SDS011;18384;48.860;9.188;2023-06-01T11:29:22;6.87;;;3.50;;
31818;SDS011;18384;48.860;9.188;2023-06-01T11:31:54;13.32;;;3.65;;
31818;SDS011;18384;48.860;9.188;2023-06-01T11:34:32;6.40;;;3.40;;
31818;SDS011;18384;48.860;9.188;2023-06-01T11:37:02;13.95;;;3.50;;
31818;SDS011;18384;48.860;9.188;2023-06-01T11:39:30;5.72;;;2.95;;
31818;SDS011;18384;48.860;9.188;2023-06-01T11:45:00;10.25;;;3.20;;
31818;SDS011;18384;48.860;9.188;2023-06-01T11:49:56;8.07;;;3.20;;
31818;SDS011;18384;48.860;9.188;2023-06-01T11:54:48;8.50;;;3.45;;
31818;SDS011;18384;48.860;9.188;2023-06-01T11:57:16;7.03;;;3.25;;
31818;SDS011;18384;48.860;9.188;2023-06-01T11:59:45;9.20;;;3.37;;
31818;SDS011;18384;48.860;9.188;2023-06-01T12:02:16;6.10;;;2.95;;
31818;SDS011;18384;48.860;9.188;2023-06-01T12:04:59;6.68;;;2.87;;
31818;SDS011;18384;48.860;9.188;2023-06-01T12:07:46;6.87;;;3.47;;
31818;SDS011;18384;48.860;9.188;2023-06-01T12:10:16;9.55;;;3.50;;
31818;SDS011;18384;48.860;9.188;2023-06-01T12:12:44;6.97;;;2.83;;
31818;SDS011;18384;48.860;9.188;2023-06-01T12:15:13;13.25;;;3.67;;
31818;SDS011;18384;48.860;9.188;2023-06-01T12:17:56;8.45;;;3.17;;
31818;SDS011;18384;48.860;9.188;2023-06-01T12:20:32;7.35;;;3.78;;
31818;SDS011;18384;48.860;9.188;2023-06-01T12:23:01;7.80;;;3.25;;
31818;SDS011;18384;48.860;9.188;2023-06-01T12:25:53;8.17;;;3.30;;
31818;SDS011;18384;48.860;9.188;2023-06-01T12:28:23;19.03;;;3.10;;
31818;SDS011;18384;48.860;9.188;2023-06-01T12:31:07;6.07;;;2.85;;
31818;SDS011;18384;48.860;9.188;2023-06-01T12:33:40;10.38;;;4.25;;
31818;SDS011;18384;48.860;9.188;2023-06-01T12:36:28;7.78;;;3.47;;
31818;SDS011;18384;48.860;9.188;2023-06-01T12:38:59;13.85;;;3.55;;
31818;SDS011;18384;48.860;9.188;2023-06-01T12:41:28;8.85;;;3.05;;
31818;SDS011;18384;48.860;9.188;2023-06-01T12:43:55;9.13;;;3.08;;
31818;SDS011;18384;48.860;9.188;2023-06-01T12:46:29;16.98;;;3.30;;
31818;SDS011;18384;48.860;9.188;2023-06-01T12:49:13;7.87;;;3.60;;
31818;SDS011;18384;48.860;9.188;2023-06-01T12:51:45;8.02;;;3.00;;
31818;SDS011;18384;48.860;9.188;2023-06-01T12:54:11;13.93;;;3.37;;
31818;SDS011;18384;48.860;9.188;2023-06-01T12:56:37;7.15;;;3.53;;
31818;SDS011;18384;48.860;9.188;2023-06-01T12:59:03;7.45;;;3.08;;
31818;SDS011;18384;48.860;9.188;2023-06-01T13:01:31;11.35;;;2.90;;
31818;SDS011;18384;48.860;9.188;2023-06-01T13:06:23;9.13;;;2.60;;
31818;SDS011;18384;48.860;9.188;2023-06-01T13:08:49;6.28;;;2.75;;
31818;SDS011;18384;48.860;9.188;2023-06-01T13:13:42;7.30;;;3.20;;
31818;SDS011;18384;48.860;9.188;2023-06-01T13:18:34;8.30;;;2.65;;
31818;SDS011;18384;48.860;9.188;2023-06-01T13:23:27;9.35;;;2.97;;
31818;SDS011;18384;48.860;9.188;2023-06-01T13:25:53;7.50;;;2.72;;
31818;SDS011;18384;48.860;9.188;2023-06-01T13:28:20;10.43;;;2.47;;
31818;SDS011;18384;48.860;9.188;2023-06-01T13:33:12;5.00;;;2.00;;
31818;SDS011;18384;48.860;9.188;2023-06-01T13:38:04;6.85;;;2.20;;
31818;SDS011;18384;48.860;9.188;2023-06-01T13:42:58;7.47;;;2.53;;
31818;SDS011;18384;48.860;9.188;2023-06-01T13:47:50;6.82;;;1.87;;
31818;SDS011;18384;48.860;9.188;2023-06-01T13:50:16;11.43;;;2.30;;
31818;SDS011;18384;48.860;9.188;2023-06-01T13:52:43;9.60;;;2.37;;
31818;SDS011;18384;48.860;9.188;2023-06-01T13:55:09;5.10;;;1.90;;
31818;SDS011;18384;48.860;9.188;2023-06-01T13:57:36;4.70;;;2.42;;
31818;SDS011;18384;48.860;9.188;2023-06-01T14:00:04;5.28;;;2.50;;
31818;SDS011;18384;48.860;9.188;2023-06-01T14:02:31;6.15;;;2.40;;
31818;SDS011;18384;48.860;9.188;2023-06-01T14:04:57;4.12;;;2.30;;
31818;SDS011;18384;48.860;9.188;2023-06-01T14:09:50;15.70;;;2.20;;
31818;SDS011;18384;48.860;9.188;2023-06-01T14:14:42;4.00;;;1.85;;
31818;SDS011;18384;48.860;9.188;2023-06-01T14:19:34;5.43;;;2.35;;
31818;SDS011;18384;48.860;9.188;2023-06-01T14:24:26;3.65;;;2.05;;
31818;SDS011;18384;48.860;9.188;2023-06-01T14:29:18;7.47;;;2.00;;
31818;SDS011;18384;48.860;9.188;2023-06-01T14:31:45;7.70;;;2.10;;
31818;SDS011;18384;48.860;9.188;2023-06-01T14:34:11;8.82;;;2.30;;
31818;SDS011;18384;48.860;9.188;2023-06-01T14:39:03;8.60;;;2.10;;
31818;SDS011;18384;48.860;9.188;2023-06-01T14:41:30;14.60;;;2.20;;
31818;SDS011;18384;48.860;9.188;2023-06-01T14:46:22;4.97;;;2.20;;
31818;SDS011;18384;48.860;9.188;2023-06-01T14:48:48;6.12;;;2.12;;
31818;SDS011;18384;48.860;9.188;2023-06-01T14:53:40;5.57;;;1.77;;
31818;SDS011;18384;48.860;9.188;2023-06-01T14:58:34;10.45;;;2.45;;
31818;SDS011;18384;48.860;9.188;2023-06-01T15:01:00;5.72;;;1.83;;
31818;SDS011;18384;48.860;9.188;2023-06-01T15:05:52;6.05;;;1.75;;
31818;SDS011;18384;48.860;9.188;2023-06-01T15:10:45;7.47;;;2.45;;
31818;SDS011;18384;48.860;9.188;2023-06-01T15:13:12;4.55;;;1.75;;
31818;SDS011;18384;48.860;9.188;2023-06-01T15:15:41;5.55;;;2.03;;
31818;SDS011;18384;48.860;9.188;2023-06-01T15:18:07;3.95;;;1.50;;
31818;SDS011;18384;48.860;9.188;2023-06-01T15:20:33;3.78;;;1.27;;
31818;SDS011;18384;48.860;9.188;2023-06-01T15:22:59;3.45;;;1.42;;
31818;SDS011;18384;48.860;9.188;2023-06-01T15:25:25;7.30;;;1.62;;
31818;SDS011;18384;48.860;9.188;2023-06-01T15:27:52;6.07;;;1.92;;
31818;SDS011;18384;48.860;9.188;2023-06-01T15:30:18;6.40;;;1.77;;
31818;SDS011;18384;48.860;9.188;2023-06-01T15:32:44;6.72;;;1.80;;
31818;SDS011;18384;48.860;9.188;2023-06-01T15:35:10;6.78;;;1.83;;
31818;SDS011;18384;48.860;9.188;2023-06-01T15:37:36;3.97;;;1.87;;
31818;SDS011;18384;48.860;9.188;2023-06-01T15:40:02;6.22;;;2.00;;
31818;SDS011;18384;48.860;9.188;2023-06-01T15:42:38;5.45;;;1.50;;
31818;SDS011;18384;48.860;9.188;2023-06-01T15:45:05;6.28;;;1.60;;
31818;SDS011;18384;48.860;9.188;2023-06-01T15:47:32;6.78;;;1.60;;
31818;SDS011;18384;48.860;9.188;2023-06-01T15:49:58;5.22;;;1.45;;
31818;SDS011;18384;48.860;9.188;2023-06-01T15:52:25;7.87;;;1.62;;
31818;SDS011;18384;48.860;9.188;2023-06-01T15:54:51;6.12;;;1.42;;
31818;SDS011;18384;48.860;9.188;2023-06-01T15:57:20;4.68;;;1.80;;
31818;SDS011;18384;48.860;9.188;2023-06-01T15:59:46;5.87;;;1.77;;
31818;SDS011;18384;48.860;9.188;2023-06-01T16:02:12;7.62;;;1.98;;
31818;SDS011;18384;48.860;9.188;2023-06-01T16:04:38;4.80;;;1.70;;
31818;SDS011;18384;48.860;9.188;2023-06-01T16:07:04;4.05;;;1.80;;
31818;SDS011;18384;48.860;9.188;2023-06-01T16:09:33;3.87;;;1.60;;
31818;SDS011;18384;48.860;9.188;2023-06-01T16:12:00;2.97;;;1.17;;
31818;SDS011;18384;48.860;9.188;2023-06-01T16:14:26;4.03;;;1.65;;
31818;SDS011;18384;48.860;9.188;2023-06-01T16:19:18;5.28;;;1.67;;
31818;SDS011;18384;48.860;9.188;2023-06-01T16:24:10;5.40;;;1.60;;
31818;SDS011;18384;48.860;9.188;2023-06-01T16:29:02;6.37;;;2.10;;
31818;SDS011;18384;48.860;9.188;2023-06-01T16:33:54;9.80;;;1.53;;
31818;SDS011;18384;48.860;9.188;2023-06-01T16:38:46;6.10;;;1.40;;
31818;SDS011;18384;48.860;9.188;2023-06-01T16:43:38;5.85;;;1.30;;
31818;SDS011;18384;48.860;9.188;2023-06-01T16:48:30;2.62;;;1.20;;
31818;SDS011;18384;48.860;9.188;2023-06-01T16:53:22;6.70;;;1.30;;
31818;SDS011;18384;48.860;9.188;2023-06-01T16:55:49;5.37;;;1.50;;
31818;SDS011;18384;48.860;9.188;2023-06-01T16:58:15;8.93;;;1.80;;
31818;SDS011;18384;48.860;9.188;2023-06-01T17:03:07;3.42;;;1.30;;
31818;SDS011;18384;48.860;9.188;2023-06-01T17:05:35;7.43;;;1.40;;
31818;SDS011;18384;48.860;9.188;2023-06-01T17:08:01;5.28;;;1.50;;
31818;SDS011;18384;48.860;9.188;2023-06-01T17:12:53;3.50;;;1.48;;
31818;SDS011;18384;48.860;9.188;2023-06-01T17:17:45;4.07;;;1.40;;
31818;SDS011;18384;48.860;9.188;2023-06-01T17:22:39;7.47;;;1.58;;
31818;SDS011;18384;48.860;9.188;2023-06-01T17:27:35;5.12;;;1.85;;
31818;SDS011;18384;48.860;9.188;2023-06-01T17:30:09;4.93;;;1.50;;
31818;SDS011;18384;48.860;9.188;2023-06-01T17:32:37;12.00;;;2.12;;
31818;SDS011;18384;48.860;9.188;2023-06-01T17:37:29;7.65;;;1.52;;
31818;SDS011;18384;48.860;9.188;2023-06-01T17:39:55;8.48;;;1.70;;
31818;SDS011;18384;48.860;9.188;2023-06-01T17:44:47;6.55;;;1.85;;
31818;SDS011;18384;48.860;9.188;2023-06-01T17:49:39;3.62;;;1.30;;
31818;SDS011;18384;48.860;9.188;2023-06-01T17:54:32;9.45;;;1.35;;
31818;SDS011;18384;48.860;9.188;2023-06-01T17:59:24;5.37;;;1.48;;